createdAt,value
2022-09-23T00:02:07.560Z,1.13
2022-09-23T00:04:42.267Z,1.80
2022-09-23T00:07:14.993Z,1.58
2022-09-23T00:09:48.123Z,1.77
2022-09-23T00:12:20.932Z,1.50
2022-09-23T00:14:54.162Z,1.55
2022-09-23T00:17:27.268Z,1.50
2022-09-23T00:22:34.596Z,2.00
2022-09-23T00:25:09.877Z,1.77
2022-09-23T00:27:42.709Z,1.55
2022-09-23T00:32:48.452Z,1.60
2022-09-23T00:35:22.535Z,2.03
2022-09-23T00:37:56.525Z,1.20
2022-09-23T00:40:29.296Z,1.40
2022-09-23T00:43:02.033Z,1.52
2022-09-23T00:45:35.090Z,1.65
2022-09-23T00:48:15.689Z,1.70
2022-09-23T00:50:55.236Z,1.65
2022-09-23T00:53:29.796Z,1.60
2022-09-23T00:56:07.280Z,1.58
2022-09-23T00:58:42.106Z,1.50
2022-09-23T01:01:15.341Z,1.77
2022-09-23T01:03:48.398Z,1.70
2022-09-23T01:08:55.567Z,1.42
2022-09-23T01:11:39.830Z,1.70
2022-09-23T01:14:29.029Z,1.40
2022-09-23T01:17:09.967Z,1.55
2022-09-23T01:20:09.442Z,1.65
2022-09-23T01:22:50.059Z,1.60
2022-09-23T01:25:44.969Z,1.42
2022-09-23T01:28:40.241Z,1.42
2022-09-23T01:31:19.473Z,1.40
2022-09-23T01:33:58.011Z,1.40
2022-09-23T01:36:38.487Z,1.50
2022-09-23T01:39:15.979Z,1.30
2022-09-23T01:42:02.162Z,1.50
2022-09-23T01:44:43.025Z,1.83
2022-09-23T01:47:22.766Z,1.45
2022-09-23T01:50:00.790Z,1.60
2022-09-23T01:52:39.855Z,1.75
2022-09-23T01:55:17.611Z,1.83
2022-09-23T01:57:57.800Z,1.70
2022-09-23T02:00:34.929Z,1.60
2022-09-23T02:03:16.453Z,1.52
2022-09-23T02:05:53.823Z,1.80
2022-09-23T02:08:30.879Z,1.40
2022-09-23T02:11:08.083Z,1.33
2022-09-23T02:13:46.222Z,1.65
2022-09-23T02:16:27.611Z,1.80
2022-09-23T02:19:07.278Z,1.65
2022-09-23T02:21:44.897Z,1.98
2022-09-23T02:24:21.092Z,1.30
2022-09-23T02:26:57.090Z,1.50
2022-09-23T02:29:36.346Z,1.80
2022-09-23T02:32:17.994Z,1.60
2022-09-23T02:35:01.050Z,1.63
2022-09-23T02:37:43.607Z,2.03
2022-09-23T02:40:25.290Z,1.40
2022-09-23T02:43:06.225Z,1.40
2022-09-23T02:45:39.436Z,1.42
2022-09-23T02:48:16.964Z,1.67
2022-09-23T02:50:51.048Z,1.48
2022-09-23T02:53:24.772Z,2.05
2022-09-23T02:55:58.565Z,1.50
2022-09-23T02:58:31.606Z,1.60
2022-09-23T03:01:26.834Z,1.52
2022-09-23T03:04:14.009Z,2.15
2022-09-23T03:07:00.397Z,1.60
2022-09-23T03:09:35.969Z,2.08
2022-09-23T03:12:16.800Z,1.60
2022-09-23T03:14:55.709Z,1.77
2022-09-23T03:17:34.733Z,1.70
2022-09-23T03:20:13.668Z,2.30
2022-09-23T03:22:54.865Z,1.60
2022-09-23T03:25:31.547Z,1.83
2022-09-23T03:28:05.747Z,2.05
2022-09-23T03:30:40.208Z,2.00
2022-09-23T03:33:16.672Z,2.25
2022-09-23T03:36:16.281Z,1.95
2022-09-23T03:38:52.977Z,2.00
2022-09-23T03:41:33.527Z,1.98
2022-09-23T03:44:11.549Z,1.80
2022-09-23T03:46:49.922Z,2.03
2022-09-23T03:49:28.837Z,1.80
2022-09-23T03:52:03.754Z,2.20
2022-09-23T03:54:38.899Z,1.98
2022-09-23T03:57:28.141Z,1.90
2022-09-23T04:00:13.346Z,1.92
2022-09-23T04:02:49.853Z,2.33
2022-09-23T04:05:25.167Z,1.77
2022-09-23T04:07:58.617Z,2.17
2022-09-23T04:11:18.483Z,1.98
2022-09-23T04:14:23.929Z,1.75
2022-09-23T04:17:11.400Z,2.00
2022-09-23T04:19:47.792Z,2.00
2022-09-23T04:22:26.693Z,1.85
2022-09-23T04:25:19.987Z,2.00
2022-09-23T04:27:57.033Z,2.20
2022-09-23T04:30:53.528Z,2.22
2022-09-23T04:33:29.464Z,2.20
2022-09-23T04:36:05.550Z,2.00
2022-09-23T04:38:38.376Z,1.92
2022-09-23T04:41:11.786Z,2.47
2022-09-23T04:43:47.347Z,2.10
2022-09-23T04:46:22.024Z,2.60
2022-09-23T04:48:55.262Z,2.47
2022-09-23T04:51:31.667Z,2.65
2022-09-23T04:54:06.205Z,2.08
2022-09-23T04:56:40.015Z,2.20
2022-09-23T04:59:15.595Z,2.30
2022-09-23T05:01:51.587Z,2.53
2022-09-23T05:04:31.043Z,2.40
2022-09-23T05:07:20.495Z,2.20
2022-09-23T05:10:28.677Z,2.55
2022-09-23T05:13:40.201Z,2.50
2022-09-23T05:16:25.035Z,2.35
2022-09-23T05:18:58.653Z,2.97
2022-09-23T05:21:32.305Z,2.95
2022-09-23T05:24:06.058Z,3.03
2022-09-23T05:26:39.630Z,2.42
2022-09-23T05:29:12.552Z,3.03
2022-09-23T05:31:47.222Z,3.00
2022-09-23T05:34:20.343Z,3.40
2022-09-23T05:39:27.375Z,3.00
2022-09-23T05:42:25.559Z,3.38
2022-09-23T05:45:28.199Z,2.95
2022-09-23T05:48:43.170Z,3.10
2022-09-23T05:51:22.551Z,2.88
2022-09-23T05:53:59.658Z,3.28
2022-09-23T05:56:34.115Z,3.30
2022-09-23T05:59:07.375Z,3.13
2022-09-23T06:01:40.809Z,3.38
2022-09-23T06:04:15.580Z,2.97
2022-09-23T06:06:48.532Z,2.80
2022-09-23T06:09:21.216Z,3.03
2022-09-23T06:11:54.062Z,2.92
2022-09-23T06:14:27.597Z,2.75
2022-09-23T06:17:03.099Z,2.72
2022-09-23T06:19:37.065Z,2.42
2022-09-23T06:22:10.831Z,2.63
2022-09-23T06:24:43.908Z,2.65
2022-09-23T06:27:16.590Z,3.47
2022-09-23T06:29:51.880Z,3.03
2022-09-23T06:32:24.529Z,2.88
2022-09-23T06:34:58.582Z,3.08
2022-09-23T06:37:33.315Z,2.83
2022-09-23T06:40:06.951Z,2.70
2022-09-23T06:42:39.664Z,3.15
2022-09-23T06:45:15.276Z,2.60
2022-09-23T06:47:51.248Z,2.72
2022-09-23T06:50:26.933Z,3.22
2022-09-23T06:52:59.737Z,2.55
2022-09-23T06:55:33.287Z,2.78
2022-09-23T06:58:06.164Z,3.42
2022-09-23T07:00:39.320Z,2.70
2022-09-23T07:05:46.064Z,2.78
2022-09-23T07:08:19.001Z,3.30
2022-09-23T07:10:55.273Z,2.63
2022-09-23T07:13:29.499Z,3.50
2022-09-23T07:16:03.693Z,3.05
2022-09-23T07:18:37.730Z,3.20
2022-09-23T07:21:16.388Z,3.58
2022-09-23T07:23:51.972Z,3.03
2022-09-23T07:26:26.335Z,3.42
2022-09-23T07:29:05.200Z,3.40
2022-09-23T07:31:40.182Z,3.30
2022-09-23T07:34:13.038Z,3.35
2022-09-23T07:36:49.758Z,3.20
2022-09-23T07:39:22.728Z,3.25
2022-09-23T07:44:31.631Z,4.00
2022-09-23T07:47:05.296Z,3.60
2022-09-23T07:49:38.604Z,3.45
2022-09-23T07:52:12.966Z,4.78
2022-09-23T07:54:48.034Z,4.50
2022-09-23T07:57:20.982Z,4.68
2022-09-23T07:59:53.706Z,5.10
2022-09-23T08:02:26.536Z,5.85
2022-09-23T08:04:59.246Z,5.65
2022-09-23T08:07:34.401Z,5.57
2022-09-23T08:10:08.387Z,5.82
2022-09-23T08:12:41.450Z,6.93
2022-09-23T08:17:48.000Z,6.40
2022-09-23T08:20:34.636Z,7.00
2022-09-23T08:23:09.096Z,7.07
2022-09-23T08:25:44.634Z,7.22
2022-09-23T08:28:19.180Z,6.47
2022-09-23T08:30:52.092Z,6.65
2022-09-23T08:36:01.331Z,6.65
2022-09-23T08:38:35.752Z,6.05
2022-09-23T08:41:17.614Z,5.80
2022-09-23T08:43:54.326Z,7.00
2022-09-23T08:46:33.163Z,6.88
2022-09-23T08:49:07.699Z,6.10
2022-09-23T08:51:46.235Z,5.97
2022-09-23T08:54:20.526Z,5.40
2022-09-23T08:56:55.340Z,5.85
2022-09-23T08:59:38.992Z,5.65
2022-09-23T09:02:19.019Z,5.75
2022-09-23T09:04:55.756Z,5.20
2022-09-23T09:07:37.069Z,5.43
2022-09-23T09:10:18.537Z,5.05
2022-09-23T09:12:55.428Z,5.38
2022-09-23T09:15:29.593Z,4.28
2022-09-23T09:18:07.649Z,5.68
2022-09-23T09:20:42.889Z,4.50
2022-09-23T09:23:22.782Z,5.05
2022-09-23T09:26:00.019Z,4.70
2022-09-23T09:28:40.125Z,4.60
2022-09-23T09:31:24.166Z,5.20
2022-09-23T09:34:03.862Z,5.40
2022-09-23T09:36:43.610Z,4.47
2022-09-23T09:39:17.264Z,5.03
2022-09-23T09:41:52.851Z,4.90
2022-09-23T09:44:31.633Z,5.07
2022-09-23T09:47:17.814Z,4.85
2022-09-23T09:50:00.679Z,5.18
2022-09-23T09:52:33.400Z,5.18
2022-09-23T09:55:25.416Z,5.45
2022-09-23T09:58:04.143Z,5.32
2022-09-23T10:00:42.733Z,5.18
2022-09-23T10:03:26.736Z,5.18
2022-09-23T10:06:00.100Z,5.10
2022-09-23T10:08:35.210Z,4.85
2022-09-23T10:11:16.149Z,4.72
2022-09-23T10:14:06.681Z,4.60
2022-09-23T10:16:40.138Z,5.53
2022-09-23T10:19:18.086Z,3.97
2022-09-23T10:21:59.859Z,5.10
2022-09-23T10:24:37.597Z,5.07
2022-09-23T10:27:12.282Z,5.10
2022-09-23T10:29:52.318Z,5.10
2022-09-23T10:32:28.976Z,4.50
2022-09-23T10:35:14.536Z,5.13
2022-09-23T10:37:50.541Z,5.13
2022-09-23T10:40:48.309Z,5.10
2022-09-23T10:43:45.760Z,4.65
2022-09-23T10:46:41.498Z,3.95
2022-09-23T10:49:34.756Z,4.43
2022-09-23T10:52:20.516Z,5.22
2022-09-23T10:55:05.140Z,5.03
2022-09-23T10:57:53.061Z,4.88
2022-09-23T11:00:37.823Z,5.15
2022-09-23T11:03:34.803Z,4.88
2022-09-23T11:06:19.989Z,4.82
2022-09-23T11:09:10.822Z,4.72
2022-09-23T11:11:54.977Z,4.55
2022-09-23T11:14:46.342Z,3.85
2022-09-23T11:17:33.418Z,4.10
2022-09-23T11:20:40.982Z,3.83
2022-09-23T11:23:38.765Z,3.55
2022-09-23T11:26:29.115Z,3.00
2022-09-23T11:29:33.805Z,3.15
2022-09-23T11:32:27.756Z,3.20
2022-09-23T11:35:12.786Z,3.58
2022-09-23T11:37:49.999Z,3.20
2022-09-23T11:40:30.246Z,3.25
2022-09-23T11:43:08.189Z,3.33
2022-09-23T11:45:46.362Z,3.22
2022-09-23T11:48:25.957Z,3.55
2022-09-23T11:51:02.665Z,3.72
2022-09-23T11:53:46.791Z,2.90
2022-09-23T11:56:34.523Z,2.97
2022-09-23T11:59:16.439Z,3.00
2022-09-23T12:02:20.654Z,2.90
2022-09-23T12:05:06.761Z,3.15
2022-09-23T12:07:51.513Z,3.15
2022-09-23T12:10:37.285Z,2.85
2022-09-23T12:13:19.097Z,3.47
2022-09-23T12:16:05.376Z,2.92
2022-09-23T12:18:49.030Z,3.38
2022-09-23T12:21:51.804Z,2.63
2022-09-23T12:24:46.565Z,3.13
2022-09-23T12:27:30.163Z,2.85
2022-09-23T12:30:12.783Z,2.90
2022-09-23T12:32:45.771Z,3.10
2022-09-23T12:37:56.193Z,2.25
2022-09-23T12:40:34.098Z,2.70
2022-09-23T12:43:17.662Z,2.70
2022-09-23T12:45:50.901Z,2.45
2022-09-23T12:48:43.622Z,2.58
2022-09-23T12:51:21.778Z,2.47
2022-09-23T12:54:22.219Z,3.47
2022-09-23T12:57:06.845Z,2.90
2022-09-23T13:00:09.650Z,2.47
2022-09-23T13:02:44.423Z,2.87
2022-09-23T13:05:39.850Z,2.65
2022-09-23T13:08:18.852Z,2.90
2022-09-23T13:10:57.254Z,2.70
2022-09-23T13:13:34.340Z,2.38
2022-09-23T13:16:22.847Z,2.13
2022-09-23T13:18:57.089Z,2.63
2022-09-23T13:22:08.863Z,2.47
2022-09-23T13:24:46.801Z,3.08
2022-09-23T13:27:27.862Z,2.78
2022-09-23T13:30:03.715Z,2.30
2022-09-23T13:32:41.735Z,3.10
2022-09-23T13:35:19.640Z,2.88
2022-09-23T13:37:52.691Z,3.08
2022-09-23T13:40:27.833Z,2.55
2022-09-23T13:43:04.095Z,2.83
2022-09-23T13:45:41.365Z,2.60
2022-09-23T13:48:16.898Z,3.20
2022-09-23T13:50:51.173Z,3.50
2022-09-23T13:53:28.616Z,2.25
2022-09-23T13:56:06.425Z,3.50
2022-09-23T13:58:39.690Z,2.40
2022-09-23T14:01:24.049Z,2.35
2022-09-23T14:03:58.233Z,2.47
2022-09-23T14:06:31.962Z,2.65
2022-09-23T14:09:04.918Z,2.40
2022-09-23T14:14:15.646Z,2.57
2022-09-23T14:16:51.314Z,2.60
2022-09-23T14:19:26.946Z,2.60
2022-09-23T14:22:00.478Z,2.92
2022-09-23T14:24:34.999Z,2.88
2022-09-23T14:27:15.962Z,2.58
2022-09-23T14:29:50.779Z,2.92
2022-09-23T14:32:27.595Z,3.55
2022-09-23T14:35:17.566Z,2.80
2022-09-23T14:38:10.810Z,3.17
2022-09-23T14:40:52.878Z,2.30
2022-09-23T14:43:29.168Z,2.47
2022-09-23T14:46:01.992Z,2.65
2022-09-23T14:48:36.786Z,2.13
2022-09-23T14:51:16.230Z,2.22
2022-09-23T14:53:51.369Z,2.03
2022-09-23T14:56:25.335Z,2.15
2022-09-23T14:58:59.814Z,2.40
2022-09-23T15:01:38.796Z,2.75
2022-09-23T15:04:18.266Z,2.08
2022-09-23T15:06:55.695Z,2.17
2022-09-23T15:09:31.545Z,2.08
2022-09-23T15:12:08.076Z,1.92
2022-09-23T15:14:46.354Z,2.30
2022-09-23T15:17:32.882Z,1.90
2022-09-23T15:20:09.822Z,1.80
2022-09-23T15:22:48.477Z,1.98
2022-09-23T15:25:25.754Z,2.33
2022-09-23T15:28:02.432Z,1.95
2022-09-23T15:30:37.389Z,1.77
2022-09-23T15:33:13.342Z,2.22
2022-09-23T15:35:48.535Z,1.83
2022-09-23T15:38:23.794Z,2.25
2022-09-23T15:40:56.860Z,2.13
2022-09-23T15:43:31.575Z,1.70
2022-09-23T15:46:32.352Z,2.17
2022-09-23T15:49:10.225Z,1.50
2022-09-23T15:51:43.722Z,1.92
2022-09-23T15:54:17.831Z,2.05
2022-09-23T15:56:50.632Z,1.90
2022-09-23T15:59:23.883Z,1.55
2022-09-23T16:01:58.265Z,1.83
2022-09-23T16:04:31.474Z,2.00
2022-09-23T16:07:05.577Z,1.90
2022-09-23T16:09:39.685Z,1.63
2022-09-23T16:12:13.000Z,1.70
2022-09-23T16:14:45.849Z,1.85
2022-09-23T16:17:18.630Z,1.75
2022-09-23T16:19:51.725Z,1.70
2022-09-23T16:22:24.519Z,1.63
2022-09-23T16:24:58.671Z,1.80
2022-09-23T16:27:31.398Z,1.70
2022-09-23T16:30:04.917Z,1.45
2022-09-23T16:32:38.215Z,1.45
2022-09-23T16:35:11.199Z,1.77
2022-09-23T16:40:24.188Z,1.80
2022-09-23T16:42:58.409Z,1.35
2022-09-23T16:45:31.465Z,1.65
2022-09-23T16:48:06.201Z,1.63
2022-09-23T16:50:39.510Z,1.65
2022-09-23T16:53:12.156Z,1.65
2022-09-23T16:55:46.301Z,2.05
2022-09-23T16:58:18.989Z,1.60
2022-09-23T17:01:15.704Z,1.48
2022-09-23T17:03:48.539Z,1.63
2022-09-23T17:06:23.182Z,1.45
2022-09-23T17:08:56.396Z,1.48
2022-09-23T17:11:33.959Z,1.88
2022-09-23T17:14:07.412Z,1.80
2022-09-23T17:16:40.264Z,1.73
2022-09-23T17:21:46.496Z,2.17
2022-09-23T17:24:19.293Z,2.40
2022-09-23T17:26:53.654Z,1.95
2022-09-23T17:29:29.108Z,2.08
2022-09-23T17:32:02.540Z,2.55
2022-09-23T17:34:35.501Z,2.42
2022-09-23T17:37:08.366Z,2.50
2022-09-23T17:39:42.382Z,2.15
2022-09-23T17:42:19.044Z,2.42
2022-09-23T17:44:51.910Z,1.98
2022-09-23T17:47:24.839Z,2.38
2022-09-23T17:49:58.746Z,2.28
2022-09-23T17:52:31.656Z,2.22
2022-09-23T17:55:04.794Z,2.60
2022-09-23T17:57:38.948Z,2.92
2022-09-23T18:00:13.131Z,3.75
2022-09-23T18:02:45.935Z,3.78
2022-09-23T18:05:19.053Z,3.85
2022-09-23T18:07:52.236Z,4.25
2022-09-23T18:12:59.021Z,4.00
2022-09-23T18:15:31.820Z,3.92
2022-09-23T18:18:05.273Z,4.38
2022-09-23T18:20:38.011Z,4.65
2022-09-23T18:23:12.887Z,4.50
2022-09-23T18:25:45.776Z,4.53
2022-09-23T18:28:21.944Z,4.57
2022-09-23T18:30:58.466Z,3.85
2022-09-23T18:33:37.889Z,4.13
2022-09-23T18:36:13.851Z,4.05
2022-09-23T18:38:51.538Z,4.25
2022-09-23T18:41:37.366Z,3.70
2022-09-23T18:44:19.830Z,4.07
2022-09-23T18:47:04.018Z,3.63
2022-09-23T18:50:13.181Z,3.80
2022-09-23T18:52:53.453Z,4.00
2022-09-23T18:55:34.482Z,3.72
2022-09-23T18:58:15.958Z,3.50
2022-09-23T19:01:09.918Z,4.00
2022-09-23T19:03:47.110Z,3.38
2022-09-23T19:06:22.604Z,3.75
2022-09-23T19:08:57.737Z,3.75
2022-09-23T19:11:54.190Z,3.50
2022-09-23T19:14:30.254Z,3.10
2022-09-23T19:17:13.359Z,3.40
2022-09-23T19:20:09.928Z,3.63
2022-09-23T19:23:10.486Z,3.20
2022-09-23T19:25:46.545Z,3.25
2022-09-23T19:28:28.940Z,3.38
2022-09-23T19:31:43.228Z,3.20
2022-09-23T19:35:07.358Z,3.28
2022-09-23T19:37:49.123Z,3.35
2022-09-23T19:40:25.853Z,3.03
2022-09-23T19:43:06.480Z,3.45
2022-09-23T19:45:44.748Z,3.42
2022-09-23T19:48:19.605Z,2.90
2022-09-23T19:51:09.550Z,3.38
2022-09-23T19:53:45.865Z,3.42
2022-09-23T19:56:22.903Z,3.35
2022-09-23T19:59:18.449Z,3.45
2022-09-23T20:01:53.585Z,2.92
2022-09-23T20:04:33.724Z,3.08
2022-09-23T20:07:08.979Z,3.30
2022-09-23T20:09:41.893Z,3.22
2022-09-23T20:12:18.032Z,3.05
2022-09-23T20:14:54.660Z,4.32
2022-09-23T20:17:28.543Z,3.25
2022-09-23T20:20:04.634Z,3.30
2022-09-23T20:22:43.911Z,3.83
2022-09-23T20:25:17.641Z,3.63
2022-09-23T20:27:53.826Z,4.00
2022-09-23T20:30:29.629Z,3.70
2022-09-23T20:33:06.618Z,3.67
2022-09-23T20:36:09.658Z,4.25
2022-09-23T20:38:43.749Z,3.88
2022-09-23T20:41:17.229Z,3.97
2022-09-23T20:43:53.964Z,4.13
2022-09-23T20:46:30.920Z,4.35
2022-09-23T20:49:09.285Z,3.97
2022-09-23T20:51:43.136Z,3.47
2022-09-23T20:54:18.958Z,4.13
2022-09-23T20:57:18.278Z,3.60
2022-09-23T20:59:51.828Z,4.13
2022-09-23T21:02:25.451Z,3.60
2022-09-23T21:05:02.709Z,4.05
2022-09-23T21:07:35.876Z,4.30
2022-09-23T21:12:45.953Z,3.88
2022-09-23T21:15:18.780Z,4.40
2022-09-23T21:17:51.538Z,4.82
2022-09-23T21:20:25.107Z,5.82
2022-09-23T21:23:01.646Z,4.28
2022-09-23T21:25:37.578Z,4.53
2022-09-23T21:28:10.689Z,4.82
2022-09-23T21:33:18.458Z,4.80
2022-09-23T21:35:55.212Z,4.75
2022-09-23T21:38:29.645Z,5.35
2022-09-23T21:41:06.257Z,5.63
2022-09-23T21:43:41.580Z,5.00
2022-09-23T21:46:17.441Z,5.47
2022-09-23T21:48:53.766Z,4.82
2022-09-23T21:51:29.817Z,5.05
2022-09-23T21:54:03.009Z,4.80
2022-09-23T21:56:37.906Z,5.72
2022-09-23T21:59:11.003Z,4.45
2022-09-23T22:04:22.996Z,5.05
2022-09-23T22:06:55.960Z,5.25
2022-09-23T22:09:28.959Z,5.13
2022-09-23T22:14:47.924Z,4.65
2022-09-23T22:17:21.336Z,5.28
2022-09-23T22:19:54.303Z,5.18
2022-09-23T22:22:29.179Z,4.43
2022-09-23T22:25:02.239Z,4.93
2022-09-23T22:27:58.048Z,4.20
2022-09-23T22:30:48.582Z,4.18
2022-09-23T22:33:22.215Z,4.43
2022-09-23T22:36:04.980Z,4.50
2022-09-23T22:38:38.878Z,4.72
2022-09-23T22:41:13.846Z,4.15
2022-09-23T22:43:50.548Z,4.72
2022-09-23T22:46:24.569Z,4.38
2022-09-23T22:48:59.767Z,4.97
2022-09-23T22:51:33.760Z,4.00
2022-09-23T22:54:23.533Z,4.20
2022-09-23T22:56:56.409Z,4.50
2022-09-23T22:59:39.413Z,4.72
2022-09-23T23:02:12.182Z,4.65
2022-09-23T23:04:47.651Z,3.83
2022-09-23T23:07:21.729Z,4.53
2022-09-23T23:09:54.695Z,4.28
2022-09-23T23:12:28.754Z,4.35
2022-09-23T23:15:02.912Z,4.00
2022-09-23T23:17:35.599Z,3.88
2022-09-23T23:20:09.033Z,4.85
2022-09-23T23:22:41.736Z,4.13
2022-09-23T23:25:15.050Z,4.10
2022-09-23T23:27:48.046Z,4.80
2022-09-23T23:30:23.925Z,4.40
2022-09-23T23:32:58.573Z,5.15
2022-09-23T23:35:31.543Z,4.63
2022-09-23T23:38:06.426Z,4.43
2022-09-23T23:40:39.235Z,4.53
2022-09-23T23:43:12.809Z,5.03
2022-09-23T23:45:48.889Z,5.28
2022-09-23T23:48:22.012Z,4.00
2022-09-23T23:50:55.433Z,4.40
2022-09-23T23:53:32.363Z,5.10
2022-09-23T23:56:08.409Z,4.22
2022-09-23T23:58:41.290Z,4.32
